Coastal Nomad — WDC6439 — position and weather

sailwx.info

Track history (hours):
 
Tides and Currents Weather Stations Pressure Air Temp Water Temp Dewpoint Dewpoint Depression Visibility Wind Speed Wind Dir Waves Ship Positions

Coastal Nomad

Owner: Coastal Transportation, Inc., Seattle, WA. More information available from US FCC via Universal Licensing System and Coast Guard Vessel Documentation Center.

Last reported at 2017-Feb-26 08:27 UTC. Time now 2017-Feb-26 21:51 UTC.
Position N 51°01' W 127°52'.

Length 74 m; draft 5 m.

Type: Cargo ship. MMSI: 303683000.

Date/timePositionNaut miles runAvg speedWind from/ knotsBaromVisibWave heightAir tempDewpointWater temp
2017-Feb-26 08:27N 51°01' W 127°52'1011.4
2017-Feb-26 07:34N 50°55' W 127°39'1111.3
2017-Feb-26 06:33N 50°49' W 127°24'1212.1
2017-Feb-26 05:33N 50°45' W 127°06'1211.7
2017-Feb-26 04:31N 50°39' W 126°49'5212.7
2017-Feb-26 00:27N 50°22' W 125°32'1010.8
2017-Feb-25 23:33N 50°14' W 125°23'8 8.1
2017-Feb-25 22:33N 50°07' W 125°18'7 7.3
2017-Feb-25 21:33N 50°00' W 125°13'6 6.4
2017-Feb-25 20:33N 49°56' W 125°05'7 7.0
2017-Feb-25 19:33N 49°51' W 124°57'6 5.5
2017-Feb-25 18:33N 49°48' W 124°51'7 7.1
2017-Feb-25 17:33N 49°42' W 124°43'1110.7
2017-Feb-25 16:33N 49°35' W 124°32'1211.9
2017-Feb-25 15:33N 49°26' W 124°19'1211.8
2017-Feb-25 14:33N 49°22' W 124°02'1211.7
2017-Feb-25 13:33N 49°17' W 123°46'1211.6
2017-Feb-25 12:31N 49°09' W 123°31'1212.0
2017-Feb-25 11:33N 49°02' W 123°18'1312.9
2017-Feb-25 10:33N 48°53' W 123°03'1312.7
2017-Feb-25 09:33N 48°46' W 122°47'1211.7
2017-Feb-25 08:33N 48°34' W 122°45'1212.4
2017-Feb-25 07:33N 48°22' W 122°45'1110.6
2017-Feb-25 06:33N 48°11' W 122°46'1212.4
2017-Feb-25 05:33N 48°01' W 122°36'1212.2
2017-Feb-25 04:34N 47°51' W 122°27'1110.8
2017-Feb-25 03:33N 47°40' W 122°24'1 1.1
2017-Feb-25 02:33N 47°39' W 122°22'0 0.0
2017-Feb-25 01:33N 47°39' W 122°22'0 0.0
2017-Feb-25 00:33N 47°39' W 122°22'0 0.0
2017-Feb-24 23:33N 47°39' W 122°22'0 0.0
2017-Feb-24 22:33N 47°39' W 122°22'0 0.0
2017-Feb-24 21:34N 47°39' W 122°22'0 0.0
2017-Feb-24 20:33N 47°39' W 122°22'0 0.0
2017-Feb-24 19:33N 47°39' W 122°22'0 0.0
2017-Feb-24 18:32N 47°39' W 122°22'0 0.0
2017-Feb-24 17:32N 47°39' W 122°22'0 0.0
2017-Feb-24 16:32N 47°39' W 122°22'0 0.0
2017-Feb-24 15:29N 47°39' W 122°22'0 0.0
2017-Feb-24 14:32N 47°39' W 122°22'0 0.0
2017-Feb-24 13:32N 47°39' W 122°22'0 0.0
2017-Feb-24 12:32N 47°39' W 122°22'0 0.0
2017-Feb-24 11:32N 47°39' W 122°22'0 0.0
2017-Feb-24 10:32N 47°39' W 122°22'0 0.0
2017-Feb-24 09:32N 47°39' W 122°22'0 0.0
2017-Feb-24 08:32N 47°39' W 122°22'0 0.0
2017-Feb-24 07:32N 47°39' W 122°22'0 0.0
2017-Feb-24 06:32N 47°39' W 122°22'0 0.0
2017-Feb-24 05:32N 47°39' W 122°22'0 0.0
2017-Feb-24 04:32N 47°39' W 122°22'0 0.0
2017-Feb-24 03:32N 47°39' W 122°22'0 0.0
2017-Feb-24 02:32N 47°39' W 122°22'0 0.0
2017-Feb-24 01:32N 47°39' W 122°22'0 0.0
2017-Feb-24 00:33N 47°39' W 122°22'0 0.0
2017-Feb-23 23:32N 47°39' W 122°22'0 0.0
2017-Feb-23 22:33N 47°39' W 122°22'0 0.0
2017-Feb-23 21:32N 47°39' W 122°22'0 0.0
2017-Feb-23 20:33N 47°39' W 122°22'0 0.0
2017-Feb-23 19:32N 47°39' W 122°22'0 0.0
2017-Feb-23 18:32N 47°39' W 122°22'0 0.0
2017-Feb-23 17:33N 47°39' W 122°22'0 0.0
2017-Feb-23 16:33N 47°39' W 122°22'0 0.0
2017-Feb-23 15:33N 47°39' W 122°22'0 0.0
2017-Feb-23 14:32N 47°39' W 122°22'0 0.0
2017-Feb-23 13:32N 47°39' W 122°22'0 0.0
2017-Feb-23 12:32N 47°39' W 122°22'0 0.0
2017-Feb-23 11:33N 47°39' W 122°22'0 0.0
2017-Feb-23 10:32N 47°39' W 122°22'0 0.0
2017-Feb-23 09:32N 47°39' W 122°22'0 0.0
2017-Feb-23 08:33N 47°39' W 122°22'0 0.0
2017-Feb-23 07:32N 47°39' W 122°22'0 0.0
2017-Feb-23 06:33N 47°39' W 122°22'0 0.0
2017-Feb-23 05:33N 47°39' W 122°22'0 0.0
2017-Feb-23 04:32N 47°39' W 122°22'0 0.0
2017-Feb-23 03:33N 47°39' W 122°22'0 0.0
2017-Feb-23 02:32N 47°39' W 122°22'0 0.0
2017-Feb-23 01:32N 47°39' W 122°22'0 0.0
2017-Feb-23 00:32N 47°39' W 122°22'0 0.0
2017-Feb-22 23:32N 47°39' W 122°22'0 0.0
2017-Feb-22 22:32N 47°39' W 122°22'0 0.0
2017-Feb-22 21:32N 47°39' W 122°22'0 0.0
2017-Feb-22 20:29N 47°39' W 122°22'0 0.0
2017-Feb-22 19:33N 47°39' W 122°22'0 0.0
2017-Feb-22 18:32N 47°39' W 122°22'0 0.0
2017-Feb-22 17:32N 47°39' W 122°22'0 0.0
2017-Feb-22 16:32N 47°39' W 122°22'0 0.0
2017-Feb-22 15:32N 47°39' W 122°22'0 0.0
2017-Feb-22 14:32N 47°39' W 122°22'0 0.0
2017-Feb-22 13:33N 47°39' W 122°22'0 0.0
2017-Feb-22 12:29N 47°39' W 122°22'0 0.0
2017-Feb-22 11:32N 47°39' W 122°22'0 0.0
2017-Feb-22 10:32N 47°39' W 122°22'0 0.0
2017-Feb-22 09:32N 47°39' W 122°22'0 0.0
2017-Feb-22 08:32N 47°39' W 122°22'0 0.0
2017-Feb-22 07:32N 47°39' W 122°22'0 0.0
2017-Feb-22 06:33N 47°39' W 122°22'0 0.0
2017-Feb-22 05:33N 47°39' W 122°22'0 0.0
2017-Feb-22 04:32N 47°39' W 122°22'0 0.0
2017-Feb-22 03:33N 47°39' W 122°22'0 0.0
2017-Feb-22 02:32N 47°39' W 122°22'0 0.0
2017-Feb-22 01:32N 47°39' W 122°22'0 0.0
2017-Feb-22 00:32N 47°39' W 122°22'0 0.0
2017-Feb-21 23:32N 47°39' W 122°22'0 0.0
2017-Feb-21 22:33N 47°39' W 122°22'0 0.0
2017-Feb-21 05:08N 47°39' W 122°22'0 0.0
2017-Feb-21 04:33N 47°39' W 122°22'2 2.0
2017-Feb-21 03:33N 47°41' W 122°25'1110.6
2017-Feb-21 02:33N 47°51' W 122°28'1010.0
2017-Feb-21 01:33N 47°59' W 122°37'10 9.2
2017-Feb-21 00:28N 48°08' W 122°43'8 8.5
2017-Feb-20 23:33N 48°15' W 122°49'1312.4
2017-Feb-20 22:33N 48°27' W 122°45'1313.0
2017-Feb-20 21:33N 48°40' W 122°43'1111.4
2017-Feb-20 20:33N 48°48' W 122°55'1211.9
2017-Feb-20 19:33N 48°55' W 123°10'1212.1
2017-Feb-20 18:33N 49°03' W 123°24'1211.8
2017-Feb-20 17:32N 49°11' W 123°38'1211.4
2017-Feb-20 16:30N 49°19' W 123°51'1211.7
2017-Feb-20 15:30N 49°27' W 124°05'1111.5
2017-Feb-20 14:32N 49°33' W 124°19'1111.5
2017-Feb-20 13:33N 49°39' W 124°33'1111.5
2017-Feb-20 12:33N 49°46' W 124°47'1211.8
2017-Feb-20 11:33N 49°54' W 125°01'1110.7
2017-Feb-20 10:33N 50°02' W 125°13'1010.0
2017-Feb-20 09:33N 50°10' W 125°22'1111.1
2017-Feb-20 08:34N 50°20' W 125°27'1311.3
2017-Feb-20 07:27N 50°22' W 125°46'3811.6
2017-Feb-20 04:12N 50°33' W 126°43'6 8.4
2017-Feb-20 03:31N 50°34' W 126°52'7 7.2
2017-Feb-20 02:33N 50°41' W 126°52'1212.0
2017-Feb-20 01:33N 50°46' W 127°09'1211.9
2017-Feb-20 00:33N 50°50' W 127°27'1111.5
2017-Feb-19 23:33N 50°56' W 127°42'1211.6
2017-Feb-19 22:33N 51°03' W 127°57'  
2017-Feb-17 18:00N 57°24' W 139°06'25511.1 230 / 17997.0 5.4 3.9
2017-Feb-16 19:00N 59°06' W 146°30'   160 / 28980.010.8 3.3
Track history (hours):
 
Tides and Currents Weather Stations Pressure Air Temp Water Temp Dewpoint Dewpoint Depression Visibility Wind Speed Wind Dir Waves Ship Positions

Coastal Nomad

Owner: Coastal Transportation, Inc., Seattle, WA. More information available from US FCC via Universal Licensing System and Coast Guard Vessel Documentation Center.

Last reported at 2017-Feb-26 08:27 UTC. Time now 2017-Feb-26 21:51 UTC.
Position N 51°01' W 127°52'.

Length 74 m; draft 5 m.

Type: Cargo ship. MMSI: 303683000.

Date/timePositionNaut miles runAvg speedWind from/ knotsBaromVisibWave heightAir tempDewpointWater temp
2017-Feb-26 08:27N 51°01' W 127°52'1011.4
2017-Feb-26 07:34N 50°55' W 127°39'1111.3
2017-Feb-26 06:33N 50°49' W 127°24'1212.1
2017-Feb-26 05:33N 50°45' W 127°06'1211.7
2017-Feb-26 04:31N 50°39' W 126°49'5212.7
2017-Feb-26 00:27N 50°22' W 125°32'1010.8
2017-Feb-25 23:33N 50°14' W 125°23'8 8.1
2017-Feb-25 22:33N 50°07' W 125°18'7 7.3
2017-Feb-25 21:33N 50°00' W 125°13'6 6.4
2017-Feb-25 20:33N 49°56' W 125°05'7 7.0
2017-Feb-25 19:33N 49°51' W 124°57'6 5.5
2017-Feb-25 18:33N 49°48' W 124°51'7 7.1
2017-Feb-25 17:33N 49°42' W 124°43'1110.7
2017-Feb-25 16:33N 49°35' W 124°32'1211.9
2017-Feb-25 15:33N 49°26' W 124°19'1211.8
2017-Feb-25 14:33N 49°22' W 124°02'1211.7
2017-Feb-25 13:33N 49°17' W 123°46'1211.6
2017-Feb-25 12:31N 49°09' W 123°31'1212.0
2017-Feb-25 11:33N 49°02' W 123°18'1312.9
2017-Feb-25 10:33N 48°53' W 123°03'1312.7
2017-Feb-25 09:33N 48°46' W 122°47'1211.7
2017-Feb-25 08:33N 48°34' W 122°45'1212.4
2017-Feb-25 07:33N 48°22' W 122°45'1110.6
2017-Feb-25 06:33N 48°11' W 122°46'1212.4
2017-Feb-25 05:33N 48°01' W 122°36'1212.2
2017-Feb-25 04:34N 47°51' W 122°27'1110.8
2017-Feb-25 03:33N 47°40' W 122°24'1 1.1
2017-Feb-25 02:33N 47°39' W 122°22'0 0.0
2017-Feb-25 01:33N 47°39' W 122°22'0 0.0
2017-Feb-25 00:33N 47°39' W 122°22'0 0.0
2017-Feb-24 23:33N 47°39' W 122°22'0 0.0
2017-Feb-24 22:33N 47°39' W 122°22'0 0.0
2017-Feb-24 21:34N 47°39' W 122°22'0 0.0
2017-Feb-24 20:33N 47°39' W 122°22'0 0.0
2017-Feb-24 19:33N 47°39' W 122°22'0 0.0
2017-Feb-24 18:32N 47°39' W 122°22'0 0.0
2017-Feb-24 17:32N 47°39' W 122°22'0 0.0
2017-Feb-24 16:32N 47°39' W 122°22'0 0.0
2017-Feb-24 15:29N 47°39' W 122°22'0 0.0
2017-Feb-24 14:32N 47°39' W 122°22'0 0.0
2017-Feb-24 13:32N 47°39' W 122°22'0 0.0
2017-Feb-24 12:32N 47°39' W 122°22'0 0.0
2017-Feb-24 11:32N 47°39' W 122°22'0 0.0
2017-Feb-24 10:32N 47°39' W 122°22'0 0.0
2017-Feb-24 09:32N 47°39' W 122°22'0 0.0
2017-Feb-24 08:32N 47°39' W 122°22'0 0.0
2017-Feb-24 07:32N 47°39' W 122°22'0 0.0
2017-Feb-24 06:32N 47°39' W 122°22'0 0.0
2017-Feb-24 05:32N 47°39' W 122°22'0 0.0
2017-Feb-24 04:32N 47°39' W 122°22'0 0.0
2017-Feb-24 03:32N 47°39' W 122°22'0 0.0
2017-Feb-24 02:32N 47°39' W 122°22'0 0.0
2017-Feb-24 01:32N 47°39' W 122°22'0 0.0
2017-Feb-24 00:33N 47°39' W 122°22'0 0.0
2017-Feb-23 23:32N 47°39' W 122°22'0 0.0
2017-Feb-23 22:33N 47°39' W 122°22'0 0.0
2017-Feb-23 21:32N 47°39' W 122°22'0 0.0
2017-Feb-23 20:33N 47°39' W 122°22'0 0.0
2017-Feb-23 19:32N 47°39' W 122°22'0 0.0
2017-Feb-23 18:32N 47°39' W 122°22'0 0.0
2017-Feb-23 17:33N 47°39' W 122°22'0 0.0
2017-Feb-23 16:33N 47°39' W 122°22'0 0.0
2017-Feb-23 15:33N 47°39' W 122°22'0 0.0
2017-Feb-23 14:32N 47°39' W 122°22'0 0.0
2017-Feb-23 13:32N 47°39' W 122°22'0 0.0
2017-Feb-23 12:32N 47°39' W 122°22'0 0.0
2017-Feb-23 11:33N 47°39' W 122°22'0 0.0
2017-Feb-23 10:32N 47°39' W 122°22'0 0.0
2017-Feb-23 09:32N 47°39' W 122°22'0 0.0
2017-Feb-23 08:33N 47°39' W 122°22'0 0.0
2017-Feb-23 07:32N 47°39' W 122°22'0 0.0
2017-Feb-23 06:33N 47°39' W 122°22'0 0.0
2017-Feb-23 05:33N 47°39' W 122°22'0 0.0
2017-Feb-23 04:32N 47°39' W 122°22'0 0.0
2017-Feb-23 03:33N 47°39' W 122°22'0 0.0
2017-Feb-23 02:32N 47°39' W 122°22'0 0.0
2017-Feb-23 01:32N 47°39' W 122°22'0 0.0
2017-Feb-23 00:32N 47°39' W 122°22'0 0.0
2017-Feb-22 23:32N 47°39' W 122°22'0 0.0
2017-Feb-22 22:32N 47°39' W 122°22'0 0.0
2017-Feb-22 21:32N 47°39' W 122°22'0 0.0
2017-Feb-22 20:29N 47°39' W 122°22'0 0.0
2017-Feb-22 19:33N 47°39' W 122°22'0 0.0
2017-Feb-22 18:32N 47°39' W 122°22'0 0.0
2017-Feb-22 17:32N 47°39' W 122°22'0 0.0
2017-Feb-22 16:32N 47°39' W 122°22'0 0.0
2017-Feb-22 15:32N 47°39' W 122°22'0 0.0
2017-Feb-22 14:32N 47°39' W 122°22'0 0.0
2017-Feb-22 13:33N 47°39' W 122°22'0 0.0
2017-Feb-22 12:29N 47°39' W 122°22'0 0.0
2017-Feb-22 11:32N 47°39' W 122°22'0 0.0
2017-Feb-22 10:32N 47°39' W 122°22'0 0.0
2017-Feb-22 09:32N 47°39' W 122°22'0 0.0
2017-Feb-22 08:32N 47°39' W 122°22'0 0.0
2017-Feb-22 07:32N 47°39' W 122°22'0 0.0
2017-Feb-22 06:33N 47°39' W 122°22'0 0.0
2017-Feb-22 05:33N 47°39' W 122°22'0 0.0
2017-Feb-22 04:32N 47°39' W 122°22'0 0.0
2017-Feb-22 03:33N 47°39' W 122°22'0 0.0
2017-Feb-22 02:32N 47°39' W 122°22'0 0.0
2017-Feb-22 01:32N 47°39' W 122°22'0 0.0
2017-Feb-22 00:32N 47°39' W 122°22'0 0.0
2017-Feb-21 23:32N 47°39' W 122°22'0 0.0
2017-Feb-21 22:33N 47°39' W 122°22'0 0.0
2017-Feb-21 05:08N 47°39' W 122°22'0 0.0
2017-Feb-21 04:33N 47°39' W 122°22'2 2.0
2017-Feb-21 03:33N 47°41' W 122°25'1110.6
2017-Feb-21 02:33N 47°51' W 122°28'1010.0
2017-Feb-21 01:33N 47°59' W 122°37'10 9.2
2017-Feb-21 00:28N 48°08' W 122°43'8 8.5
2017-Feb-20 23:33N 48°15' W 122°49'1312.4
2017-Feb-20 22:33N 48°27' W 122°45'1313.0
2017-Feb-20 21:33N 48°40' W 122°43'1111.4
2017-Feb-20 20:33N 48°48' W 122°55'1211.9
2017-Feb-20 19:33N 48°55' W 123°10'1212.1
2017-Feb-20 18:33N 49°03' W 123°24'1211.8
2017-Feb-20 17:32N 49°11' W 123°38'1211.4
2017-Feb-20 16:30N 49°19' W 123°51'1211.7
2017-Feb-20 15:30N 49°27' W 124°05'1111.5
2017-Feb-20 14:32N 49°33' W 124°19'1111.5
2017-Feb-20 13:33N 49°39' W 124°33'1111.5
2017-Feb-20 12:33N 49°46' W 124°47'1211.8
2017-Feb-20 11:33N 49°54' W 125°01'1110.7
2017-Feb-20 10:33N 50°02' W 125°13'1010.0
2017-Feb-20 09:33N 50°10' W 125°22'1111.1
2017-Feb-20 08:34N 50°20' W 125°27'1311.3
2017-Feb-20 07:27N 50°22' W 125°46'3811.6
2017-Feb-20 04:12N 50°33' W 126°43'6 8.4
2017-Feb-20 03:31N 50°34' W 126°52'7 7.2
2017-Feb-20 02:33N 50°41' W 126°52'1212.0
2017-Feb-20 01:33N 50°46' W 127°09'1211.9
2017-Feb-20 00:33N 50°50' W 127°27'1111.5
2017-Feb-19 23:33N 50°56' W 127°42'1211.6
2017-Feb-19 22:33N 51°03' W 127°57'  
2017-Feb-17 18:00N 57°24' W 139°06'25511.1 230 / 17997.0 5.4 3.9
2017-Feb-16 19:00N 59°06' W 146°30'   160 / 28980.010.8 3.3

Dump ship's entire track history